Portada
METAR-TAF:

METAR-TAF

Aeroports :

Mwanza, Tanzània

latitud: 02-28S, longitud: 032-55E, altitud: 1139 m

Observació

L'informe es va fer fa 5 hores i 10 minuts, a les 18:00 UTC
Vent calma
Temperatura 24°C
Humitat 74%
Pressió 1015 hPa
Visibilitat 10 km o més
Escasses núvols a una alçada de 2300 ft

METAR: HTMW 291800Z 00000KT 9999 FEW023 24/19 Q1015 NOSIG

Hora: 02:10 (23:10 UTC)

Pronòstic

L'informe es va fer fa 6 hores i 10 minuts, a les 17:00 UTC
Pronòstic vàlid del 29 a les 18 UTC al 30 a les 18 UTC
Vent kt del Nord
Visibilitat 10 km o més
Escasses núvols a una alçada de 2200 ft
Escasses núvols a una alçada de 2300 ft, Cumulonimbus.
Evolucionant progressivament
l' 30 a les 04 UTC al 30 a les 07 UTC
Vent 10 kt del Sud-Est
Evolucionant progressivament
l' 30 a les 11 UTC al 30 a les 13 UTC
Vent 10 kt del Nord-Oest

TAF: HTMW 291700Z 2918/3018 00000KT 9999 FEW022 FEW023CB BECMG 3004/3007 13010KT BECMG 3011/3013 32010KT

Observacions i pronòstics meteorològics de més de 4000 aeroports (METAR i TAF).

Les estacions disponibles són els punts grocs i vermells al mapa.

Posi el ratolí al punt desitjat per veure el nom de l'estació.

Feu clic per veure les observacions i els pronòstics meteorològics.

Per canviar el mapa: feu clic els botons verds amb una creu de color negre per apropar; al botó verd amb un guió per allunyar la imatge; o en les fletxes verdes per a mapes adjacents.


METAR-TAF: